createdAt,value
2023-03-19T00:01:18.880Z,8.70
2023-03-19T00:06:21.428Z,8.00
2023-03-19T00:11:24.137Z,8.15
2023-03-19T00:16:28.272Z,8.40
2023-03-19T00:21:31.129Z,7.93
2023-03-19T00:26:34.294Z,7.53
2023-03-19T00:31:38.162Z,7.55
2023-03-19T00:36:40.728Z,7.78
2023-03-19T00:41:50.215Z,8.13
2023-03-19T00:46:54.169Z,8.93
2023-03-19T00:51:56.727Z,7.55
2023-03-19T00:56:59.265Z,7.50
2023-03-19T01:02:03.645Z,6.85
2023-03-19T01:07:06.484Z,7.88
2023-03-19T01:12:09.545Z,6.95
2023-03-19T01:17:13.625Z,7.80
2023-03-19T01:22:16.723Z,7.63
2023-03-19T01:27:23.919Z,7.03
2023-03-19T01:32:28.491Z,7.05
2023-03-19T01:37:44.525Z,7.78
2023-03-19T01:42:54.949Z,7.13
2023-03-19T01:48:21.344Z,7.75
2023-03-19T01:53:37.153Z,7.50
2023-03-19T01:58:53.137Z,7.72
2023-03-19T02:04:23.791Z,6.30
2023-03-19T02:09:27.741Z,6.93
2023-03-19T02:14:30.292Z,6.63
2023-03-19T02:19:39.206Z,7.53
2023-03-19T02:24:46.106Z,7.30
2023-03-19T02:29:54.248Z,7.75
2023-03-19T02:34:58.846Z,7.00
2023-03-19T02:40:04.485Z,7.10
2023-03-19T02:45:09.910Z,6.97
2023-03-19T02:50:12.893Z,6.80
2023-03-19T02:55:18.515Z,7.20
2023-03-19T03:00:22.594Z,7.25
2023-03-19T03:05:25.420Z,7.28
2023-03-19T03:10:28.632Z,7.03
2023-03-19T03:15:33.123Z,7.10
2023-03-19T03:20:35.954Z,6.72
2023-03-19T03:25:40.215Z,6.97
2023-03-19T03:30:44.162Z,6.68
2023-03-19T03:35:47.204Z,6.80
2023-03-19T03:40:50.967Z,5.97
2023-03-19T03:45:55.055Z,7.20
2023-03-19T03:50:57.940Z,7.13
2023-03-19T03:56:03.474Z,7.22
2023-03-19T04:01:08.851Z,6.97
2023-03-19T04:06:14.518Z,6.78
2023-03-19T04:11:17.261Z,6.05
2023-03-19T04:16:21.280Z,7.32
2023-03-19T04:21:24.238Z,6.78
2023-03-19T04:26:27.036Z,6.38
2023-03-19T04:31:31.126Z,6.88
2023-03-19T04:36:33.785Z,6.03
2023-03-19T04:41:36.529Z,6.47
2023-03-19T04:47:06.593Z,6.55
2023-03-19T04:52:23.777Z,6.85
2023-03-19T04:57:26.962Z,6.95
2023-03-19T05:02:32.799Z,7.05
2023-03-19T05:07:36.324Z,6.53
2023-03-19T05:12:41.054Z,6.25
2023-03-19T05:17:45.326Z,5.85
2023-03-19T05:22:52.894Z,5.70
2023-03-19T05:27:57.151Z,6.00
2023-03-19T05:33:03.432Z,6.80
2023-03-19T05:38:11.272Z,6.03
2023-03-19T05:43:16.014Z,5.80
2023-03-19T05:48:20.949Z,5.50
2023-03-19T05:53:24.356Z,5.97
2023-03-19T05:58:52.477Z,6.38
2023-03-19T06:04:02.750Z,6.43
2023-03-19T06:09:07.009Z,5.97
2023-03-19T06:14:13.218Z,5.95
2023-03-19T06:19:21.090Z,6.60
2023-03-19T06:24:24.126Z,6.05
2023-03-19T06:29:26.985Z,6.10
2023-03-19T06:34:37.505Z,5.63
2023-03-19T06:39:41.158Z,6.30
2023-03-19T06:44:43.824Z,6.60
2023-03-19T06:49:47.737Z,5.95
2023-03-19T06:54:50.577Z,5.90
2023-03-19T06:59:53.302Z,6.55
2023-03-19T07:04:57.450Z,6.00
2023-03-19T07:10:00.149Z,6.82
2023-03-19T07:15:02.731Z,5.65
2023-03-19T07:20:07.428Z,5.93
2023-03-19T07:25:10.676Z,5.72
2023-03-19T07:30:14.407Z,6.55
2023-03-19T07:35:18.412Z,13.45
2023-03-19T07:40:21.161Z,7.78
2023-03-19T07:45:23.861Z,6.63
2023-03-19T07:50:27.791Z,6.32
2023-03-19T07:55:30.665Z,6.32
2023-03-19T08:00:33.595Z,6.57
2023-03-19T08:05:37.831Z,5.47
2023-03-19T08:10:40.713Z,6.60
2023-03-19T08:15:43.733Z,6.32
2023-03-19T08:20:47.973Z,5.78
2023-03-19T08:25:52.118Z,5.72
2023-03-19T08:30:55.652Z,5.78
2023-03-19T08:36:06.216Z,6.25
2023-03-19T08:41:09.125Z,6.63
2023-03-19T08:46:11.756Z,5.68
2023-03-19T08:51:15.712Z,5.68
2023-03-19T08:56:18.300Z,5.65
2023-03-19T09:01:21.092Z,5.63
2023-03-19T09:06:25.069Z,6.13
2023-03-19T09:11:27.808Z,5.80
2023-03-19T09:16:31.228Z,6.05
2023-03-19T09:21:35.423Z,6.22
2023-03-19T09:26:37.964Z,6.30
2023-03-19T09:31:41.578Z,6.18
2023-03-19T09:36:45.710Z,5.38
2023-03-19T09:42:00.018Z,6.82
2023-03-19T09:47:10.167Z,6.50
2023-03-19T09:52:21.396Z,5.82
2023-03-19T09:57:24.044Z,5.00
2023-03-19T10:02:40.146Z,5.90
2023-03-19T10:07:54.924Z,6.57
2023-03-19T10:13:00.681Z,5.32
2023-03-19T10:18:05.044Z,6.03
2023-03-19T10:23:19.095Z,6.72
2023-03-19T10:28:22.810Z,5.53
2023-03-19T10:33:26.381Z,6.70
2023-03-19T10:38:33.667Z,5.80
2023-03-19T10:43:38.097Z,5.82
2023-03-19T10:48:44.417Z,6.22
2023-03-19T10:53:48.365Z,5.82
2023-03-19T10:58:58.297Z,6.32
2023-03-19T11:04:01.715Z,5.80
2023-03-19T11:09:15.424Z,5.28
2023-03-19T11:14:19.236Z,4.53
2023-03-19T11:19:22.934Z,4.70
2023-03-19T11:24:27.362Z,5.13
2023-03-19T11:29:30.396Z,4.53
2023-03-19T11:34:36.978Z,4.28
2023-03-19T11:39:45.686Z,3.97
2023-03-19T11:44:54.534Z,4.82
2023-03-19T11:50:05.239Z,4.13
2023-03-19T11:55:18.726Z,2.70
2023-03-19T12:00:29.816Z,1.60
2023-03-19T12:05:33.965Z,2.30
2023-03-19T12:10:49.229Z,1.92
2023-03-19T12:15:56.017Z,2.25
2023-03-19T12:21:02.942Z,2.05
2023-03-19T12:26:08.829Z,2.20
2023-03-19T12:31:29.420Z,2.55
2023-03-19T12:36:33.896Z,2.40
2023-03-19T12:41:41.591Z,2.38
2023-03-19T12:46:45.960Z,2.40
2023-03-19T12:51:52.056Z,2.00
2023-03-19T12:56:59.814Z,2.17
2023-03-19T13:02:05.653Z,1.90
2023-03-19T13:07:11.147Z,1.83
2023-03-19T13:12:18.542Z,1.80
2023-03-19T13:17:24.853Z,1.58
2023-03-19T13:22:29.409Z,1.20
2023-03-19T13:27:34.452Z,1.30
2023-03-19T13:32:39.657Z,1.58
2023-03-19T13:37:43.021Z,1.40
2023-03-19T13:42:57.162Z,1.52
2023-03-19T13:48:24.424Z,1.50
2023-03-19T13:53:35.581Z,1.30
2023-03-19T13:58:52.142Z,1.50
2023-03-19T14:03:56.360Z,1.65
2023-03-19T14:08:59.304Z,1.77
2023-03-19T14:14:05.514Z,1.17
2023-03-19T14:19:12.449Z,1.30
2023-03-19T14:24:54.445Z,1.50
2023-03-19T14:29:47.624Z,1.30
2023-03-19T14:34:50.996Z,1.33
2023-03-19T14:39:55.762Z,2.17
2023-03-19T14:45:18.846Z,1.38
2023-03-19T14:50:36.595Z,1.10
2023-03-19T14:55:39.332Z,1.27
2023-03-19T15:00:44.742Z,1.08
2023-03-19T15:05:50.166Z,0.90
2023-03-19T15:10:59.291Z,1.10
2023-03-19T15:16:26.167Z,1.30
2023-03-19T15:21:31.809Z,0.93
2023-03-19T15:26:35.149Z,1.00
2023-03-19T15:31:53.988Z,1.10
2023-03-19T15:37:08.165Z,1.27
2023-03-19T15:42:10.980Z,1.27
2023-03-19T15:47:17.104Z,1.00
2023-03-19T15:52:21.531Z,1.00
2023-03-19T15:57:24.840Z,1.00
2023-03-19T16:02:29.297Z,1.17
2023-03-19T16:07:40.488Z,1.40
2023-03-19T16:12:43.346Z,1.27
2023-03-19T16:17:46.024Z,1.98
2023-03-19T16:22:53.472Z,1.80
2023-03-19T16:27:56.086Z,2.60
2023-03-19T16:33:00.049Z,1.25
2023-03-19T16:38:13.912Z,1.30
2023-03-19T16:43:18.435Z,0.93
2023-03-19T16:48:21.011Z,0.82
2023-03-19T16:53:25.992Z,0.90
2023-03-19T16:58:30.381Z,1.20
2023-03-19T17:03:33.197Z,1.00
2023-03-19T17:08:37.171Z,1.38
2023-03-19T17:13:43.714Z,1.05
2023-03-19T17:18:47.865Z,1.13
2023-03-19T17:23:51.916Z,1.90
2023-03-19T17:28:55.095Z,1.52
2023-03-19T17:33:59.413Z,2.40
2023-03-19T17:39:03.374Z,1.63
2023-03-19T17:44:06.827Z,1.42
2023-03-19T17:49:13.470Z,1.30
2023-03-19T17:54:17.927Z,1.38
2023-03-19T17:59:20.514Z,1.45
2023-03-19T18:04:23.552Z,1.35
2023-03-19T18:09:28.468Z,1.40
2023-03-19T18:14:31.086Z,1.30
2023-03-19T18:19:34.454Z,1.40
2023-03-19T18:24:38.464Z,1.15
2023-03-19T18:29:41.174Z,1.20
2023-03-19T18:34:43.773Z,1.35
2023-03-19T18:39:47.813Z,1.42
2023-03-19T18:44:50.710Z,1.77
2023-03-19T18:49:57.489Z,2.55
2023-03-19T18:55:01.478Z,2.30
2023-03-19T19:00:04.341Z,2.05
2023-03-19T19:05:07.198Z,2.00
2023-03-19T19:10:11.959Z,2.92
2023-03-19T19:15:20.024Z,2.65
2023-03-19T19:20:23.710Z,2.55
2023-03-19T19:25:28.640Z,2.42
2023-03-19T19:30:31.674Z,2.38
2023-03-19T19:35:34.281Z,2.55
2023-03-19T19:40:38.440Z,2.08
2023-03-19T19:45:41.966Z,1.63
2023-03-19T19:50:45.156Z,2.25
2023-03-19T19:55:49.104Z,2.38
2023-03-19T20:01:02.969Z,2.35
2023-03-19T20:06:06.868Z,2.20
2023-03-19T20:11:15.371Z,2.60
2023-03-19T20:16:18.518Z,2.75
2023-03-19T20:21:21.587Z,2.50
2023-03-19T20:26:25.751Z,2.92
2023-03-19T20:31:31.086Z,2.95
2023-03-19T20:36:33.720Z,2.72
2023-03-19T20:41:37.729Z,2.75
2023-03-19T20:46:41.000Z,2.95
2023-03-19T20:51:43.668Z,2.95
2023-03-19T20:56:48.051Z,2.92
2023-03-19T21:01:52.674Z,2.97
2023-03-19T21:06:56.190Z,3.45
2023-03-19T21:12:00.498Z,2.97
2023-03-19T21:17:03.136Z,3.17
2023-03-19T21:22:06.613Z,2.88
2023-03-19T21:27:14.756Z,2.92
2023-03-19T21:32:19.782Z,3.83
2023-03-19T21:37:22.349Z,3.55
2023-03-19T21:42:26.532Z,3.30
2023-03-19T21:47:29.219Z,3.17
2023-03-19T21:52:37.596Z,3.03
2023-03-19T21:57:50.002Z,2.40
2023-03-19T22:02:52.608Z,2.70
2023-03-19T22:07:56.128Z,2.83
2023-03-19T22:13:00.144Z,2.88
2023-03-19T22:18:03.065Z,2.60
2023-03-19T22:23:06.140Z,2.30
2023-03-19T22:28:14.600Z,2.88
2023-03-19T22:33:17.961Z,2.28
2023-03-19T22:38:21.616Z,1.95
2023-03-19T22:43:28.638Z,2.15
2023-03-19T22:48:31.568Z,1.80
2023-03-19T22:53:34.996Z,1.90
2023-03-19T22:58:39.257Z,1.73
2023-03-19T23:03:41.940Z,1.60
2023-03-19T23:08:44.550Z,1.60
2023-03-19T23:13:48.550Z,1.60
2023-03-19T23:18:51.128Z,1.70
2023-03-19T23:23:54.526Z,1.60
2023-03-19T23:29:00.587Z,1.40
2023-03-19T23:34:03.109Z,1.45
2023-03-19T23:39:07.080Z,1.60
2023-03-19T23:44:12.635Z,1.20
2023-03-19T23:49:15.930Z,1.33
2023-03-19T23:54:36.877Z,1.30
2023-03-19T23:59:42.547Z,1.50
